sensor_id;sensor_type;location;lat;lon;timestamp;temperature;humidity
33837;DHT22;20140;49.356;8.812;2023-05-18T00:01:08;7.90;99.90
33837;DHT22;20140;49.356;8.812;2023-05-18T00:03:34;8.00;99.90
33837;DHT22;20140;49.356;8.812;2023-05-18T00:06:00;8.00;99.90
33837;DHT22;20140;49.356;8.812;2023-05-18T00:08:29;8.00;99.90
33837;DHT22;20140;49.356;8.812;2023-05-18T00:10:56;8.10;99.90
33837;DHT22;20140;49.356;8.812;2023-05-18T00:13:21;8.10;99.90
33837;DHT22;20140;49.356;8.812;2023-05-18T00:15:47;8.00;99.90
33837;DHT22;20140;49.356;8.812;2023-05-18T00:18:12;8.10;99.90
33837;DHT22;20140;49.356;8.812;2023-05-18T00:20:38;8.00;99.90
33837;DHT22;20140;49.356;8.812;2023-05-18T00:23:03;8.10;99.90
33837;DHT22;20140;49.356;8.812;2023-05-18T00:25:30;8.10;99.90
33837;DHT22;20140;49.356;8.812;2023-05-18T00:27:56;8.10;99.90
33837;DHT22;20140;49.356;8.812;2023-05-18T00:30:21;8.10;99.90
33837;DHT22;20140;49.356;8.812;2023-05-18T00:32:48;8.10;99.90
33837;DHT22;20140;49.356;8.812;2023-05-18T00:35:14;8.10;99.90
33837;DHT22;20140;49.356;8.812;2023-05-18T00:37:39;8.10;99.90
33837;DHT22;20140;49.356;8.812;2023-05-18T00:40:06;8.10;99.90
33837;DHT22;20140;49.356;8.812;2023-05-18T00:42:31;8.00;99.90
33837;DHT22;20140;49.356;8.812;2023-05-18T00:44:57;8.10;99.90
33837;DHT22;20140;49.356;8.812;2023-05-18T00:47:22;8.00;99.90
33837;DHT22;20140;49.356;8.812;2023-05-18T00:49:48;7.90;99.90
33837;DHT22;20140;49.356;8.812;2023-05-18T00:52:14;7.90;99.90
33837;DHT22;20140;49.356;8.812;2023-05-18T00:54:42;7.80;99.90
33837;DHT22;20140;49.356;8.812;2023-05-18T00:57:07;7.90;99.90
33837;DHT22;20140;49.356;8.812;2023-05-18T00:59:33;7.80;99.90
33837;DHT22;20140;49.356;8.812;2023-05-18T01:01:59;7.80;99.90
33837;DHT22;20140;49.356;8.812;2023-05-18T01:04:25;7.90;99.90
33837;DHT22;20140;49.356;8.812;2023-05-18T01:06:53;7.90;99.90
33837;DHT22;20140;49.356;8.812;2023-05-18T01:09:20;7.90;99.90
33837;DHT22;20140;49.356;8.812;2023-05-18T01:14:48;8.00;99.90
33837;DHT22;20140;49.356;8.812;2023-05-18T01:17:36;8.10;99.90
33837;DHT22;20140;49.356;8.812;2023-05-18T01:20:26;8.10;99.90
33837;DHT22;20140;49.356;8.812;2023-05-18T01:26:16;8.10;99.90
33837;DHT22;20140;49.356;8.812;2023-05-18T01:28:50;8.00;99.90
33837;DHT22;20140;49.356;8.812;2023-05-18T01:31:16;8.00;99.90
33837;DHT22;20140;49.356;8.812;2023-05-18T01:33:42;8.00;99.90
33837;DHT22;20140;49.356;8.812;2023-05-18T01:36:08;8.00;99.90
33837;DHT22;20140;49.356;8.812;2023-05-18T01:38:34;8.00;99.90
33837;DHT22;20140;49.356;8.812;2023-05-18T01:41:26;8.00;99.90
33837;DHT22;20140;49.356;8.812;2023-05-18T01:51:55;7.70;99.90
33837;DHT22;20140;49.356;8.812;2023-05-18T01:54:23;7.60;99.90
33837;DHT22;20140;49.356;8.812;2023-05-18T01:56:51;7.60;99.90
33837;DHT22;20140;49.356;8.812;2023-05-18T01:59:18;7.50;99.90
33837;DHT22;20140;49.356;8.812;2023-05-18T02:01:43;7.50;99.90
33837;DHT22;20140;49.356;8.812;2023-05-18T02:04:09;7.40;99.90
33837;DHT22;20140;49.356;8.812;2023-05-18T02:06:35;7.40;99.90
33837;DHT22;20140;49.356;8.812;2023-05-18T02:09:03;7.30;99.90
33837;DHT22;20140;49.356;8.812;2023-05-18T02:11:29;7.40;99.90
33837;DHT22;20140;49.356;8.812;2023-05-18T02:13:54;7.30;99.90
33837;DHT22;20140;49.356;8.812;2023-05-18T02:16:20;7.30;99.90
33837;DHT22;20140;49.356;8.812;2023-05-18T02:18:45;7.30;99.90
33837;DHT22;20140;49.356;8.812;2023-05-18T02:21:11;7.20;99.90
33837;DHT22;20140;49.356;8.812;2023-05-18T02:23:38;7.20;99.90
33837;DHT22;20140;49.356;8.812;2023-05-18T02:26:04;7.20;99.90
33837;DHT22;20140;49.356;8.812;2023-05-18T02:28:29;7.10;99.90
33837;DHT22;20140;49.356;8.812;2023-05-18T02:31:04;7.00;99.90
33837;DHT22;20140;49.356;8.812;2023-05-18T02:33:30;6.90;99.90
33837;DHT22;20140;49.356;8.812;2023-05-18T02:36:00;7.00;99.90
33837;DHT22;20140;49.356;8.812;2023-05-18T02:38:27;7.00;99.90
33837;DHT22;20140;49.356;8.812;2023-05-18T02:40:53;6.90;99.90
33837;DHT22;20140;49.356;8.812;2023-05-18T02:43:18;6.90;99.90
33837;DHT22;20140;49.356;8.812;2023-05-18T02:45:44;6.90;99.90
33837;DHT22;20140;49.356;8.812;2023-05-18T02:48:09;7.00;99.90
33837;DHT22;20140;49.356;8.812;2023-05-18T02:50:35;7.10;99.90
33837;DHT22;20140;49.356;8.812;2023-05-18T02:53:00;7.00;99.90
33837;DHT22;20140;49.356;8.812;2023-05-18T02:55:26;7.00;99.90
33837;DHT22;20140;49.356;8.812;2023-05-18T02:57:53;7.00;99.90
33837;DHT22;20140;49.356;8.812;2023-05-18T03:00:21;6.90;99.90
33837;DHT22;20140;49.356;8.812;2023-05-18T03:02:48;6.80;99.90
33837;DHT22;20140;49.356;8.812;2023-05-18T03:05:14;6.80;99.90
33837;DHT22;20140;49.356;8.812;2023-05-18T03:07:41;6.80;99.90
33837;DHT22;20140;49.356;8.812;2023-05-18T03:10:10;6.80;99.90
33837;DHT22;20140;49.356;8.812;2023-05-18T03:12:36;6.70;99.90
33837;DHT22;20140;49.356;8.812;2023-05-18T03:15:01;6.70;99.90
33837;DHT22;20140;49.356;8.812;2023-05-18T03:17:27;6.60;99.90
33837;DHT22;20140;49.356;8.812;2023-05-18T03:19:53;6.50;99.90
33837;DHT22;20140;49.356;8.812;2023-05-18T03:22:18;6.50;99.90
33837;DHT22;20140;49.356;8.812;2023-05-18T03:24:44;6.60;99.90
33837;DHT22;20140;49.356;8.812;2023-05-18T03:27:09;6.60;99.90
33837;DHT22;20140;49.356;8.812;2023-05-18T03:29:37;6.80;99.90
33837;DHT22;20140;49.356;8.812;2023-05-18T03:32:02;6.90;99.90
33837;DHT22;20140;49.356;8.812;2023-05-18T03:34:28;6.80;99.90
33837;DHT22;20140;49.356;8.812;2023-05-18T03:36:54;6.70;99.90
33837;DHT22;20140;49.356;8.812;2023-05-18T03:39:19;6.70;99.90
33837;DHT22;20140;49.356;8.812;2023-05-18T03:41:45;6.70;99.90
33837;DHT22;20140;49.356;8.812;2023-05-18T03:44:11;6.50;99.90
33837;DHT22;20140;49.356;8.812;2023-05-18T03:46:36;6.60;99.90
33837;DHT22;20140;49.356;8.812;2023-05-18T03:49:02;6.60;99.90
33837;DHT22;20140;49.356;8.812;2023-05-18T03:51:29;6.60;99.90
33837;DHT22;20140;49.356;8.812;2023-05-18T03:53:55;6.60;99.90
33837;DHT22;20140;49.356;8.812;2023-05-18T03:56:21;6.60;99.90
33837;DHT22;20140;49.356;8.812;2023-05-18T03:58:47;6.60;99.90
33837;DHT22;20140;49.356;8.812;2023-05-18T04:01:12;6.60;99.90
33837;DHT22;20140;49.356;8.812;2023-05-18T04:03:38;6.60;99.90
33837;DHT22;20140;49.356;8.812;2023-05-18T04:06:05;6.60;99.90
33837;DHT22;20140;49.356;8.812;2023-05-18T04:08:31;6.70;99.90
33837;DHT22;20140;49.356;8.812;2023-05-18T04:10:58;6.70;99.90
33837;DHT22;20140;49.356;8.812;2023-05-18T04:13:24;6.70;99.90
33837;DHT22;20140;49.356;8.812;2023-05-18T04:15:49;6.70;99.90
33837;DHT22;20140;49.356;8.812;2023-05-18T04:18:15;6.70;99.90
33837;DHT22;20140;49.356;8.812;2023-05-18T04:20:41;6.80;99.90
33837;DHT22;20140;49.356;8.812;2023-05-18T04:23:11;6.80;99.90
33837;DHT22;20140;49.356;8.812;2023-05-18T04:25:36;6.90;99.90
33837;DHT22;20140;49.356;8.812;2023-05-18T04:28:04;6.90;99.90
33837;DHT22;20140;49.356;8.812;2023-05-18T04:30:29;6.90;99.90
33837;DHT22;20140;49.356;8.812;2023-05-18T04:32:55;6.90;99.90
33837;DHT22;20140;49.356;8.812;2023-05-18T04:35:22;6.80;99.90
33837;DHT22;20140;49.356;8.812;2023-05-18T04:37:49;6.80;99.90
33837;DHT22;20140;49.356;8.812;2023-05-18T04:40:15;6.90;99.90
33837;DHT22;20140;49.356;8.812;2023-05-18T04:42:43;6.90;99.90
33837;DHT22;20140;49.356;8.812;2023-05-18T04:45:18;6.90;99.90
33837;DHT22;20140;49.356;8.812;2023-05-18T04:47:48;6.90;99.90
33837;DHT22;20140;49.356;8.812;2023-05-18T04:50:18;7.00;99.90
33837;DHT22;20140;49.356;8.812;2023-05-18T04:52:45;7.00;99.90
33837;DHT22;20140;49.356;8.812;2023-05-18T04:55:20;7.10;99.90
33837;DHT22;20140;49.356;8.812;2023-05-18T04:57:53;7.00;99.90
33837;DHT22;20140;49.356;8.812;2023-05-18T05:00:21;7.10;99.90
33837;DHT22;20140;49.356;8.812;2023-05-18T05:02:48;7.10;99.90
33837;DHT22;20140;49.356;8.812;2023-05-18T05:05:14;7.20;99.90
33837;DHT22;20140;49.356;8.812;2023-05-18T05:07:39;7.30;99.90
33837;DHT22;20140;49.356;8.812;2023-05-18T05:10:05;7.20;99.90
33837;DHT22;20140;49.356;8.812;2023-05-18T05:12:31;7.30;99.90
33837;DHT22;20140;49.356;8.812;2023-05-18T05:14:57;7.30;99.90
33837;DHT22;20140;49.356;8.812;2023-05-18T05:17:23;7.40;99.90
33837;DHT22;20140;49.356;8.812;2023-05-18T05:19:49;7.50;99.90
33837;DHT22;20140;49.356;8.812;2023-05-18T05:22:14;7.50;99.90
33837;DHT22;20140;49.356;8.812;2023-05-18T05:24:42;7.60;99.90
33837;DHT22;20140;49.356;8.812;2023-05-18T05:27:07;7.70;99.90
33837;DHT22;20140;49.356;8.812;2023-05-18T05:29:33;7.70;99.90
33837;DHT22;20140;49.356;8.812;2023-05-18T05:31:58;7.80;99.90
33837;DHT22;20140;49.356;8.812;2023-05-18T05:34:24;7.80;99.90
33837;DHT22;20140;49.356;8.812;2023-05-18T05:36:49;7.80;99.90
33837;DHT22;20140;49.356;8.812;2023-05-18T05:39:15;7.90;99.90
33837;DHT22;20140;49.356;8.812;2023-05-18T05:41:40;8.00;99.90
33837;DHT22;20140;49.356;8.812;2023-05-18T05:44:06;8.10;99.90
33837;DHT22;20140;49.356;8.812;2023-05-18T05:46:32;8.10;99.90
33837;DHT22;20140;49.356;8.812;2023-05-18T05:48:57;8.20;99.90
33837;DHT22;20140;49.356;8.812;2023-05-18T05:51:23;8.30;99.90
33837;DHT22;20140;49.356;8.812;2023-05-18T05:53:48;8.40;99.90
33837;DHT22;20140;49.356;8.812;2023-05-18T05:56:14;8.50;99.90
33837;DHT22;20140;49.356;8.812;2023-05-18T05:58:40;8.50;99.90
33837;DHT22;20140;49.356;8.812;2023-05-18T06:01:06;8.50;99.90
33837;DHT22;20140;49.356;8.812;2023-05-18T06:03:33;8.50;99.90
33837;DHT22;20140;49.356;8.812;2023-05-18T06:05:59;8.50;99.90
33837;DHT22;20140;49.356;8.812;2023-05-18T06:08:24;8.60;99.90
33837;DHT22;20140;49.356;8.812;2023-05-18T06:10:50;8.60;99.90
33837;DHT22;20140;49.356;8.812;2023-05-18T06:13:16;8.70;99.90
33837;DHT22;20140;49.356;8.812;2023-05-18T06:15:41;8.80;99.90
33837;DHT22;20140;49.356;8.812;2023-05-18T06:18:07;8.90;99.90
33837;DHT22;20140;49.356;8.812;2023-05-18T06:20:32;9.00;99.90
33837;DHT22;20140;49.356;8.812;2023-05-18T06:22:58;9.00;99.90
33837;DHT22;20140;49.356;8.812;2023-05-18T06:25:23;9.20;99.90
33837;DHT22;20140;49.356;8.812;2023-05-18T06:27:49;9.20;99.90
33837;DHT22;20140;49.356;8.812;2023-05-18T06:30:15;9.30;99.90
33837;DHT22;20140;49.356;8.812;2023-05-18T06:32:41;9.30;99.90
33837;DHT22;20140;49.356;8.812;2023-05-18T06:35:06;9.40;99.90
33837;DHT22;20140;49.356;8.812;2023-05-18T06:37:32;9.50;99.90
33837;DHT22;20140;49.356;8.812;2023-05-18T06:39:58;9.60;99.90
33837;DHT22;20140;49.356;8.812;2023-05-18T06:42:23;9.70;99.90
33837;DHT22;20140;49.356;8.812;2023-05-18T06:44:49;9.70;99.90
33837;DHT22;20140;49.356;8.812;2023-05-18T06:47:15;9.80;99.90
33837;DHT22;20140;49.356;8.812;2023-05-18T06:49:41;9.90;99.90
33837;DHT22;20140;49.356;8.812;2023-05-18T06:52:06;9.90;99.90
33837;DHT22;20140;49.356;8.812;2023-05-18T06:54:34;10.00;99.90
33837;DHT22;20140;49.356;8.812;2023-05-18T06:57:00;10.10;99.90
33837;DHT22;20140;49.356;8.812;2023-05-18T06:59:25;10.20;99.90
33837;DHT22;20140;49.356;8.812;2023-05-18T07:01:51;10.20;99.90
33837;DHT22;20140;49.356;8.812;2023-05-18T07:04:16;10.20;99.90
33837;DHT22;20140;49.356;8.812;2023-05-18T07:06:44;10.40;99.90
33837;DHT22;20140;49.356;8.812;2023-05-18T07:09:10;10.50;99.90
33837;DHT22;20140;49.356;8.812;2023-05-18T07:11:36;10.50;99.90
33837;DHT22;20140;49.356;8.812;2023-05-18T07:14:01;10.60;99.90
33837;DHT22;20140;49.356;8.812;2023-05-18T07:16:27;10.70;99.90
33837;DHT22;20140;49.356;8.812;2023-05-18T07:18:52;10.70;99.90
33837;DHT22;20140;49.356;8.812;2023-05-18T07:21:18;10.80;99.90
33837;DHT22;20140;49.356;8.812;2023-05-18T07:23:43;10.90;99.90
33837;DHT22;20140;49.356;8.812;2023-05-18T07:26:10;11.10;99.90
33837;DHT22;20140;49.356;8.812;2023-05-18T07:28:36;11.30;99.90
33837;DHT22;20140;49.356;8.812;2023-05-18T07:31:02;11.40;99.90
33837;DHT22;20140;49.356;8.812;2023-05-18T07:33:28;11.40;99.90
33837;DHT22;20140;49.356;8.812;2023-05-18T07:35:54;11.50;99.90
33837;DHT22;20140;49.356;8.812;2023-05-18T07:38:20;11.50;99.90
33837;DHT22;20140;49.356;8.812;2023-05-18T07:40:45;11.50;99.90
33837;DHT22;20140;49.356;8.812;2023-05-18T07:43:11;11.60;99.90
33837;DHT22;20140;49.356;8.812;2023-05-18T07:45:36;11.60;99.90
33837;DHT22;20140;49.356;8.812;2023-05-18T07:48:02;11.70;99.90
33837;DHT22;20140;49.356;8.812;2023-05-18T07:50:28;11.80;99.90
33837;DHT22;20140;49.356;8.812;2023-05-18T07:52:54;11.80;99.90
33837;DHT22;20140;49.356;8.812;2023-05-18T07:55:20;11.80;99.90
33837;DHT22;20140;49.356;8.812;2023-05-18T07:57:45;11.90;99.90
33837;DHT22;20140;49.356;8.812;2023-05-18T08:00:11;11.90;99.90
33837;DHT22;20140;49.356;8.812;2023-05-18T08:02:37;12.00;99.90
33837;DHT22;20140;49.356;8.812;2023-05-18T08:05:04;12.00;99.90
33837;DHT22;20140;49.356;8.812;2023-05-18T08:07:31;12.10;99.90
33837;DHT22;20140;49.356;8.812;2023-05-18T08:09:57;12.20;99.90
33837;DHT22;20140;49.356;8.812;2023-05-18T08:12:22;12.30;99.90
33837;DHT22;20140;49.356;8.812;2023-05-18T08:14:49;12.40;99.90
33837;DHT22;20140;49.356;8.812;2023-05-18T08:17:14;12.50;99.90
33837;DHT22;20140;49.356;8.812;2023-05-18T08:19:40;12.60;99.90
33837;DHT22;20140;49.356;8.812;2023-05-18T08:22:05;12.60;99.90
33837;DHT22;20140;49.356;8.812;2023-05-18T08:24:31;12.60;99.90
33837;DHT22;20140;49.356;8.812;2023-05-18T08:26:58;12.70;99.90
33837;DHT22;20140;49.356;8.812;2023-05-18T08:29:23;12.90;99.90
33837;DHT22;20140;49.356;8.812;2023-05-18T08:31:50;13.10;99.90
33837;DHT22;20140;49.356;8.812;2023-05-18T08:34:16;13.20;99.90
33837;DHT22;20140;49.356;8.812;2023-05-18T08:36:41;13.30;99.90
33837;DHT22;20140;49.356;8.812;2023-05-18T08:39:10;13.30;99.90
33837;DHT22;20140;49.356;8.812;2023-05-18T08:41:42;13.40;99.90
33837;DHT22;20140;49.356;8.812;2023-05-18T08:44:19;13.20;99.90
33837;DHT22;20140;49.356;8.812;2023-05-18T08:46:48;13.40;99.90
33837;DHT22;20140;49.356;8.812;2023-05-18T08:49:17;13.60;99.90
33837;DHT22;20140;49.356;8.812;2023-05-18T08:51:45;13.70;99.90
33837;DHT22;20140;49.356;8.812;2023-05-18T08:54:20;13.90;99.90
33837;DHT22;20140;49.356;8.812;2023-05-18T08:56:46;13.90;99.90
33837;DHT22;20140;49.356;8.812;2023-05-18T08:59:15;14.00;99.90
33837;DHT22;20140;49.356;8.812;2023-05-18T09:01:40;14.10;99.90
33837;DHT22;20140;49.356;8.812;2023-05-18T09:04:07;14.20;99.90
33837;DHT22;20140;49.356;8.812;2023-05-18T09:06:34;14.30;99.90
33837;DHT22;20140;49.356;8.812;2023-05-18T09:09:00;14.40;99.90
33837;DHT22;20140;49.356;8.812;2023-05-18T09:11:33;14.50;99.90
33837;DHT22;20140;49.356;8.812;2023-05-18T09:14:00;14.50;99.90
33837;DHT22;20140;49.356;8.812;2023-05-18T09:16:26;14.70;99.90
33837;DHT22;20140;49.356;8.812;2023-05-18T09:18:52;14.70;99.90
33837;DHT22;20140;49.356;8.812;2023-05-18T09:21:18;14.90;99.90
33837;DHT22;20140;49.356;8.812;2023-05-18T09:23:43;15.10;99.90
33837;DHT22;20140;49.356;8.812;2023-05-18T09:26:09;15.20;99.90
33837;DHT22;20140;49.356;8.812;2023-05-18T09:28:40;15.30;99.90
33837;DHT22;20140;49.356;8.812;2023-05-18T09:31:07;15.40;99.90
33837;DHT22;20140;49.356;8.812;2023-05-18T09:33:35;15.40;99.90
33837;DHT22;20140;49.356;8.812;2023-05-18T09:36:04;15.60;99.90
33837;DHT22;20140;49.356;8.812;2023-05-18T09:38:30;15.70;99.90
33837;DHT22;20140;49.356;8.812;2023-05-18T09:40:55;15.60;99.90
33837;DHT22;20140;49.356;8.812;2023-05-18T09:43:21;15.70;99.90
33837;DHT22;20140;49.356;8.812;2023-05-18T09:45:48;15.80;99.90
33837;DHT22;20140;49.356;8.812;2023-05-18T09:48:17;15.70;99.90
33837;DHT22;20140;49.356;8.812;2023-05-18T09:50:43;15.70;99.90
33837;DHT22;20140;49.356;8.812;2023-05-18T09:53:11;15.80;99.70
33837;DHT22;20140;49.356;8.812;2023-05-18T09:55:43;15.80;99.90
33837;DHT22;20140;49.356;8.812;2023-05-18T09:58:09;15.90;99.80
33837;DHT22;20140;49.356;8.812;2023-05-18T10:00:38;15.90;99.90
33837;DHT22;20140;49.356;8.812;2023-05-18T10:03:15;15.90;98.10
33837;DHT22;20140;49.356;8.812;2023-05-18T10:05:41;16.00;99.80
33837;DHT22;20140;49.356;8.812;2023-05-18T10:08:07;16.20;97.40
33837;DHT22;20140;49.356;8.812;2023-05-18T10:10:37;16.40;98.30
33837;DHT22;20140;49.356;8.812;2023-05-18T10:13:03;16.30;98.00
33837;DHT22;20140;49.356;8.812;2023-05-18T10:15:29;16.30;99.90
33837;DHT22;20140;49.356;8.812;2023-05-18T10:17:55;16.20;98.60
33837;DHT22;20140;49.356;8.812;2023-05-18T10:20:22;16.00;97.30
33837;DHT22;20140;49.356;8.812;2023-05-18T10:22:49;16.10;98.10
33837;DHT22;20140;49.356;8.812;2023-05-18T10:25:18;16.40;96.70
33837;DHT22;20140;49.356;8.812;2023-05-18T10:27:45;16.60;99.30
33837;DHT22;20140;49.356;8.812;2023-05-18T10:30:13;16.70;99.30
33837;DHT22;20140;49.356;8.812;2023-05-18T10:32:39;16.40;98.40
33837;DHT22;20140;49.356;8.812;2023-05-18T10:35:05;16.20;96.70
33837;DHT22;20140;49.356;8.812;2023-05-18T10:37:35;16.30;96.60
33837;DHT22;20140;49.356;8.812;2023-05-18T10:40:02;16.50;97.20
33837;DHT22;20140;49.356;8.812;2023-05-18T10:42:29;16.40;96.10
33837;DHT22;20140;49.356;8.812;2023-05-18T10:44:56;16.70;96.50
33837;DHT22;20140;49.356;8.812;2023-05-18T10:47:23;16.60;96.40
33837;DHT22;20140;49.356;8.812;2023-05-18T10:49:51;16.80;96.40
33837;DHT22;20140;49.356;8.812;2023-05-18T10:52:17;16.90;95.70
33837;DHT22;20140;49.356;8.812;2023-05-18T10:54:43;17.00;96.80
33837;DHT22;20140;49.356;8.812;2023-05-18T10:57:16;17.00;96.80
33837;DHT22;20140;49.356;8.812;2023-05-18T10:59:43;17.10;95.50
33837;DHT22;20140;49.356;8.812;2023-05-18T11:02:18;17.30;96.90
33837;DHT22;20140;49.356;8.812;2023-05-18T11:04:45;17.50;96.00
33837;DHT22;20140;49.356;8.812;2023-05-18T11:07:14;17.40;96.00
33837;DHT22;20140;49.356;8.812;2023-05-18T11:09:41;17.50;95.80
33837;DHT22;20140;49.356;8.812;2023-05-18T11:12:11;17.70;95.10
33837;DHT22;20140;49.356;8.812;2023-05-18T11:14:50;17.30;93.90
33837;DHT22;20140;49.356;8.812;2023-05-18T11:17:22;17.20;96.00
33837;DHT22;20140;49.356;8.812;2023-05-18T11:28:00;17.70;96.30
33837;DHT22;20140;49.356;8.812;2023-05-18T11:33:10;17.80;93.90
33837;DHT22;20140;49.356;8.812;2023-05-18T11:38:26;17.80;93.80
33837;DHT22;20140;49.356;8.812;2023-05-18T11:44:19;19.00;94.20
33837;DHT22;20140;49.356;8.812;2023-05-18T11:47:03;19.00;90.90
33837;DHT22;20140;49.356;8.812;2023-05-18T11:49:52;19.20;92.00
33837;DHT22;20140;49.356;8.812;2023-05-18T11:52:19;19.00;91.70
33837;DHT22;20140;49.356;8.812;2023-05-18T11:54:55;18.90;91.40
33837;DHT22;20140;49.356;8.812;2023-05-18T11:57:58;18.60;90.60
33837;DHT22;20140;49.356;8.812;2023-05-18T12:00:18;19.00;91.70
33837;DHT22;20140;49.356;8.812;2023-05-18T12:02:45;19.30;92.10
33837;DHT22;20140;49.356;8.812;2023-05-18T12:05:11;19.50;92.20
33837;DHT22;20140;49.356;8.812;2023-05-18T12:07:38;19.20;92.10
33837;DHT22;20140;49.356;8.812;2023-05-18T12:10:09;19.20;92.20
33837;DHT22;20140;49.356;8.812;2023-05-18T12:12:35;19.60;90.60
33837;DHT22;20140;49.356;8.812;2023-05-18T12:15:08;19.60;91.40
33837;DHT22;20140;49.356;8.812;2023-05-18T12:17:46;19.80;94.90
33837;DHT22;20140;49.356;8.812;2023-05-18T12:20:13;20.20;92.80
33837;DHT22;20140;49.356;8.812;2023-05-18T12:22:41;20.10;89.70
33837;DHT22;20140;49.356;8.812;2023-05-18T12:25:07;20.10;87.50
33837;DHT22;20140;49.356;8.812;2023-05-18T12:27:42;20.20;91.40
33837;DHT22;20140;49.356;8.812;2023-05-18T12:32:38;20.30;88.30
33837;DHT22;20140;49.356;8.812;2023-05-18T12:35:08;19.90;84.40
33837;DHT22;20140;49.356;8.812;2023-05-18T12:37:39;19.20;85.30
33837;DHT22;20140;49.356;8.812;2023-05-18T12:40:06;19.60;90.10
33837;DHT22;20140;49.356;8.812;2023-05-18T12:42:31;19.70;86.60
33837;DHT22;20140;49.356;8.812;2023-05-18T12:44:57;20.10;90.70
33837;DHT22;20140;49.356;8.812;2023-05-18T12:47:23;20.00;84.90
33837;DHT22;20140;49.356;8.812;2023-05-18T12:49:49;20.40;89.50
33837;DHT22;20140;49.356;8.812;2023-05-18T12:52:15;20.10;87.00
33837;DHT22;20140;49.356;8.812;2023-05-18T12:54:48;20.80;86.80
33837;DHT22;20140;49.356;8.812;2023-05-18T12:57:19;21.20;85.00
33837;DHT22;20140;49.356;8.812;2023-05-18T12:59:48;21.30;86.20
33837;DHT22;20140;49.356;8.812;2023-05-18T13:05:09;20.80;87.90
33837;DHT22;20140;49.356;8.812;2023-05-18T13:07:42;21.00;83.80
33837;DHT22;20140;49.356;8.812;2023-05-18T13:10:16;21.60;81.30
33837;DHT22;20140;49.356;8.812;2023-05-18T13:12:44;22.40;82.00
33837;DHT22;20140;49.356;8.812;2023-05-18T13:17:36;22.70;79.90
33837;DHT22;20140;49.356;8.812;2023-05-18T13:20:02;22.30;74.80
33837;DHT22;20140;49.356;8.812;2023-05-18T13:22:29;22.90;77.90
33837;DHT22;20140;49.356;8.812;2023-05-18T13:24:54;23.60;67.00
33837;DHT22;20140;49.356;8.812;2023-05-18T13:27:20;23.20;73.90
33837;DHT22;20140;49.356;8.812;2023-05-18T13:29:45;23.80;73.10
33837;DHT22;20140;49.356;8.812;2023-05-18T13:32:11;23.70;71.00
33837;DHT22;20140;49.356;8.812;2023-05-18T13:34:36;23.50;66.20
33837;DHT22;20140;49.356;8.812;2023-05-18T13:37:02;23.10;70.60
33837;DHT22;20140;49.356;8.812;2023-05-18T13:39:27;24.10;64.40
33837;DHT22;20140;49.356;8.812;2023-05-18T13:41:53;24.00;66.60
33837;DHT22;20140;49.356;8.812;2023-05-18T13:44:18;24.20;67.50
33837;DHT22;20140;49.356;8.812;2023-05-18T13:46:44;24.00;67.50
33837;DHT22;20140;49.356;8.812;2023-05-18T13:49:09;23.70;64.60
33837;DHT22;20140;49.356;8.812;2023-05-18T13:51:37;24.40;68.30
33837;DHT22;20140;49.356;8.812;2023-05-18T13:54:03;24.00;65.70
33837;DHT22;20140;49.356;8.812;2023-05-18T13:56:29;24.70;65.40
33837;DHT22;20140;49.356;8.812;2023-05-18T13:58:54;24.80;64.70
33837;DHT22;20140;49.356;8.812;2023-05-18T14:01:20;25.40;57.50
33837;DHT22;20140;49.356;8.812;2023-05-18T14:03:46;24.50;61.80
33837;DHT22;20140;49.356;8.812;2023-05-18T14:06:11;23.80;60.50
33837;DHT22;20140;49.356;8.812;2023-05-18T14:08:37;24.60;62.10
33837;DHT22;20140;49.356;8.812;2023-05-18T14:11:03;24.60;59.40
33837;DHT22;20140;49.356;8.812;2023-05-18T14:13:28;25.40;60.20
33837;DHT22;20140;49.356;8.812;2023-05-18T14:15:54;24.70;57.00
33837;DHT22;20140;49.356;8.812;2023-05-18T14:18:19;25.30;58.10
33837;DHT22;20140;49.356;8.812;2023-05-18T14:20:45;24.70;56.60
33837;DHT22;20140;49.356;8.812;2023-05-18T14:23:12;24.50;59.60
33837;DHT22;20140;49.356;8.812;2023-05-18T14:25:38;24.40;58.30
33837;DHT22;20140;49.356;8.812;2023-05-18T14:28:03;25.50;57.70
33837;DHT22;20140;49.356;8.812;2023-05-18T14:30:29;24.90;57.10
33837;DHT22;20140;49.356;8.812;2023-05-18T14:32:54;25.10;59.30
33837;DHT22;20140;49.356;8.812;2023-05-18T14:35:20;24.30;58.60
33837;DHT22;20140;49.356;8.812;2023-05-18T14:37:45;23.90;59.70
33837;DHT22;20140;49.356;8.812;2023-05-18T14:40:11;24.70;57.80
33837;DHT22;20140;49.356;8.812;2023-05-18T14:42:36;24.50;59.70
33837;DHT22;20140;49.356;8.812;2023-05-18T14:45:02;24.50;57.10
33837;DHT22;20140;49.356;8.812;2023-05-18T14:47:28;25.00;59.70
33837;DHT22;20140;49.356;8.812;2023-05-18T14:49:53;25.30;56.50
33837;DHT22;20140;49.356;8.812;2023-05-18T14:52:19;26.00;58.00
33837;DHT22;20140;49.356;8.812;2023-05-18T14:54:45;24.90;55.30
33837;DHT22;20140;49.356;8.812;2023-05-18T14:57:12;25.10;55.60
33837;DHT22;20140;49.356;8.812;2023-05-18T14:59:37;24.70;54.10
33837;DHT22;20140;49.356;8.812;2023-05-18T15:02:03;24.90;56.90
33837;DHT22;20140;49.356;8.812;2023-05-18T15:04:28;26.10;56.20
33837;DHT22;20140;49.356;8.812;2023-05-18T15:06:54;25.40;57.40
33837;DHT22;20140;49.356;8.812;2023-05-18T15:09:20;25.50;54.80
33837;DHT22;20140;49.356;8.812;2023-05-18T15:11:45;25.30;54.40
33837;DHT22;20140;49.356;8.812;2023-05-18T15:14:11;24.10;54.50
33837;DHT22;20140;49.356;8.812;2023-05-18T15:16:37;23.50;57.00
33837;DHT22;20140;49.356;8.812;2023-05-18T15:19:02;23.20;56.80
33837;DHT22;20140;49.356;8.812;2023-05-18T15:21:29;22.60;55.80
33837;DHT22;20140;49.356;8.812;2023-05-18T15:23:55;22.90;60.70
33837;DHT22;20140;49.356;8.812;2023-05-18T15:26:20;23.20;57.50
33837;DHT22;20140;49.356;8.812;2023-05-18T15:28:46;24.50;58.10
33837;DHT22;20140;49.356;8.812;2023-05-18T15:31:11;24.30;57.90
33837;DHT22;20140;49.356;8.812;2023-05-18T15:33:37;25.00;57.30
33837;DHT22;20140;49.356;8.812;2023-05-18T15:36:06;25.00;58.80
33837;DHT22;20140;49.356;8.812;2023-05-18T15:38:32;24.70;57.20
33837;DHT22;20140;49.356;8.812;2023-05-18T15:40:58;24.20;58.90
33837;DHT22;20140;49.356;8.812;2023-05-18T15:43:23;23.50;61.30
33837;DHT22;20140;49.356;8.812;2023-05-18T15:45:50;23.00;64.70
33837;DHT22;20140;49.356;8.812;2023-05-18T15:48:15;23.10;62.70
33837;DHT22;20140;49.356;8.812;2023-05-18T15:50:41;23.80;61.20
33837;DHT22;20140;49.356;8.812;2023-05-18T15:53:07;23.40;58.30
33837;DHT22;20140;49.356;8.812;2023-05-18T15:55:32;24.40;58.80
33837;DHT22;20140;49.356;8.812;2023-05-18T15:57:58;24.50;58.60
33837;DHT22;20140;49.356;8.812;2023-05-18T16:00:23;24.60;57.60
33837;DHT22;20140;49.356;8.812;2023-05-18T16:02:50;25.40;57.30
33837;DHT22;20140;49.356;8.812;2023-05-18T16:05:16;25.10;55.20
33837;DHT22;20140;49.356;8.812;2023-05-18T16:07:41;25.10;54.50
33837;DHT22;20140;49.356;8.812;2023-05-18T16:10:07;24.50;56.20
33837;DHT22;20140;49.356;8.812;2023-05-18T16:12:33;23.90;58.30
33837;DHT22;20140;49.356;8.812;2023-05-18T16:14:58;23.30;58.50